Time;durP1;ratioP1;P1;durP2;ratioP2;P2;SDS_P1;SDS_P2;PMS_P1;PMS_P2;Temp;Humidity;BMP_temperature;BMP_pressure;BME280_temperature;BME280_humidity;BME280_pressure;Samples;Min_cycle;Max_cycle;Signal;HPM_P1;HPM_P2
2022/09/20 00:02:09;;;;;;;;;4.00;4.00;;;;;;;;4903256;29;45379;-70
2022/09/20 00:04:34;;;;;;;;;7.00;5.00;;;;;;;;4902690;29;46199;-71
2022/09/20 00:06:59;;;;;;;;;8.00;4.00;;;;;;;;4902577;29;45294;-70
2022/09/20 00:09:24;;;;;;;;;9.00;9.00;;;;;;;;4902656;29;45452;-70
2022/09/20 00:11:51;;;;;;;;;7.67;5.00;;;;;;;;4902852;28;45257;-71
2022/09/20 00:14:16;;;;;;;;;5.00;5.00;;;;;;;;4902521;29;46461;-71
2022/09/20 00:16:41;;;;;;;;;4.33;4.00;;;;;;;;4902527;29;45286;-70
2022/09/20 00:19:07;;;;;;;;;6.00;6.00;;;;;;;;4901560;29;45485;-70
2022/09/20 00:21:33;;;;;;;;;7.33;6.00;;;;;;;;4902912;28;45215;-70
2022/09/20 00:23:58;;;;;;;;;10.00;5.67;;;;;;;;4902176;28;45923;-71
2022/09/20 00:26:25;;;;;;;;;9.00;6.00;;;;;;;;4902398;29;45303;-69
2022/09/20 00:28:50;;;;;;;;;7.00;6.67;;;;;;;;4902194;28;45370;-70
2022/09/20 00:31:16;;;;;;;;;9.00;7.00;;;;;;;;4902586;28;45478;-70
2022/09/20 00:36:26;;;;;;;;;6.33;6.33;;;;;;;;4901946;29;45515;-70
2022/09/20 00:38:55;;;;;;;;;6.33;5.33;;;;;;;;4902170;28;45328;-70
2022/09/20 00:41:20;;;;;;;;;7.67;6.00;;;;;;;;4902513;28;45294;-71
2022/09/20 00:43:46;;;;;;;;;7.00;6.00;;;;;;;;4901531;29;46212;-70
2022/09/20 00:46:20;;;;;;;;;11.33;7.67;;;;;;;;4901989;29;45207;-70
2022/09/20 00:48:46;;;;;;;;;5.67;4.67;;;;;;;;4901864;28;45375;-70
2022/09/20 00:51:15;;;;;;;;;6.33;6.33;;;;;;;;4901295;28;45460;-70
2022/09/20 00:53:43;;;;;;;;;6.33;6.33;;;;;;;;4901852;28;46051;-70
2022/09/20 00:56:13;;;;;;;;;9.00;7.00;;;;;;;;4901785;28;45175;-70
2022/09/20 00:58:43;;;;;;;;;8.67;7.00;;;;;;;;4901756;28;45336;-71
2022/09/20 01:01:09;;;;;;;;;5.33;5.00;;;;;;;;4902074;29;45490;-71
2022/09/20 01:03:36;;;;;;;;;7.00;6.00;;;;;;;;4901730;28;46040;-71
2022/09/20 01:06:04;;;;;;;;;6.00;4.00;;;;;;;;4901621;28;45447;-71
2022/09/20 01:08:30;;;;;;;;;4.33;3.33;;;;;;;;4901034;28;45567;-71
2022/09/20 01:10:56;;;;;;;;;6.00;4.00;;;;;;;;4901950;28;45491;-71
2022/09/20 01:13:21;;;;;;;;;10.00;6.00;;;;;;;;4901432;29;45606;-70
2022/09/20 01:15:48;;;;;;;;;6.67;5.00;;;;;;;;4900088;28;45289;-71
2022/09/20 01:18:15;;;;;;;;;4.50;4.00;;;;;;;;4901523;28;45329;-71
2022/09/20 01:20:42;;;;;;;;;4.33;4.33;;;;;;;;4901861;29;45318;-71
2022/09/20 01:23:07;;;;;;;;;7.33;4.33;;;;;;;;4901133;28;45280;-72
2022/09/20 01:25:45;;;;;;;;;4.33;4.33;;;;;;;;4900299;29;45337;-72
2022/09/20 01:28:10;;;;;;;;;6.33;4.00;;;;;;;;4901409;29;45425;-71
2022/09/20 01:30:39;;;;;;;;;6.00;6.00;;;;;;;;4901651;29;45457;-71
2022/09/20 01:33:10;;;;;;;;;5.33;4.33;;;;;;;;4901092;28;46279;-71
2022/09/20 01:35:35;;;;;;;;;5.00;5.00;;;;;;;;4901454;29;45483;-71
2022/09/20 01:38:09;;;;;;;;;7.67;5.67;;;;;;;;4901590;29;45350;-71
2022/09/20 01:40:44;;;;;;;;;7.00;5.00;;;;;;;;4901561;28;45310;-71
2022/09/20 01:43:12;;;;;;;;;5.00;5.00;;;;;;;;4899880;29;45271;-71
2022/09/20 01:45:41;;;;;;;;;5.33;5.33;;;;;;;;4901103;29;45793;-71
2022/09/20 01:48:17;;;;;;;;;5.33;4.00;;;;;;;;4901058;28;45796;-71
2022/09/20 01:51:01;;;;;;;;;6.67;5.00;;;;;;;;4901428;28;45540;-72
2022/09/20 01:53:29;;;;;;;;;5.33;5.33;;;;;;;;4900861;29;45428;-71
2022/09/20 01:56:09;;;;;;;;;5.00;5.00;;;;;;;;4901139;29;45427;-71
2022/09/20 01:58:34;;;;;;;;;4.67;4.00;;;;;;;;4900351;29;45314;-72
2022/09/20 02:01:18;;;;;;;;;6.33;5.00;;;;;;;;4901216;29;45490;-71
2022/09/20 02:03:49;;;;;;;;;7.67;5.33;;;;;;;;4900602;28;46595;-71
2022/09/20 02:06:30;;;;;;;;;6.67;6.67;;;;;;;;4901061;29;45467;-71
2022/09/20 02:09:10;;;;;;;;;4.33;4.33;;;;;;;;4901067;29;45443;-71
2022/09/20 02:11:35;;;;;;;;;6.67;4.00;;;;;;;;4901083;29;45460;-71
2022/09/20 02:14:13;;;;;;;;;5.33;5.33;;;;;;;;4900429;29;46505;-71
2022/09/20 02:16:49;;;;;;;;;5.33;4.00;;;;;;;;4899919;28;45456;-72
2022/09/20 02:19:30;;;;;;;;;8.67;5.00;;;;;;;;4901076;28;45448;-71
2022/09/20 02:22:14;;;;;;;;;4.00;4.00;;;;;;;;4900234;28;45404;-71
2022/09/20 02:25:00;;;;;;;;;8.00;4.33;;;;;;;;4900619;28;45427;-71
2022/09/20 02:28:01;;;;;;;;;5.00;5.00;;;;;;;;4900594;28;45621;-71
2022/09/20 02:30:29;;;;;;;;;5.33;3.67;;;;;;;;4842347;29;45354;-71
2022/09/20 02:33:10;;;;;;;;;5.33;4.00;;;;;;;;4853874;29;45597;-71
2022/09/20 02:35:58;;;;;;;;;7.75;4.50;;;;;;;;4860826;29;46273;-71
2022/09/20 02:38:29;;;;;;;;;5.00;3.33;;;;;;;;4805093;29;45504;-71
2022/09/20 02:41:04;;;;;;;;;6.00;4.00;;;;;;;;4805644;29;45542;-71
2022/09/20 02:43:47;;;;;;;;;3.67;3.67;;;;;;;;4805390;29;45520;-71
2022/09/20 02:46:12;;;;;;;;;6.33;6.33;;;;;;;;4805025;29;46246;-72
2022/09/20 02:48:53;;;;;;;;;6.33;5.67;;;;;;;;4803650;29;45377;-71
2022/09/20 02:51:44;;;;;;;;;4.25;4.00;;;;;;;;4805238;29;45430;-71
2022/09/20 02:54:16;;;;;;;;;6.00;4.00;;;;;;;;4803568;29;45294;-71
2022/09/20 02:56:57;;;;;;;;;3.33;3.00;;;;;;;;4804939;29;45452;-72
2022/09/20 02:59:31;;;;;;;;;6.00;4.00;;;;;;;;4805288;29;45412;-72
2022/09/20 03:02:09;;;;;;;;;2.00;2.00;;;;;;;;4804820;29;45393;-71
2022/09/20 03:04:37;;;;;;;;;5.25;4.50;;;;;;;;4835432;29;45449;-70
2022/09/20 03:07:09;;;;;;;;;5.00;3.00;;;;;;;;4860549;29;45582;-70
2022/09/20 03:09:42;;;;;;;;;5.67;4.00;;;;;;;;4860657;29;45615;-70
2022/09/20 03:12:13;;;;;;;;;3.33;3.33;;;;;;;;4860405;29;45472;-71
2022/09/20 03:14:52;;;;;;;;;6.00;4.00;;;;;;;;4868026;29;45426;-71
2022/09/20 03:17:23;;;;;;;;;5.25;3.00;;;;;;;;4899908;28;46130;-71
2022/09/20 03:19:51;;;;;;;;;2.25;2.25;;;;;;;;4900273;29;45381;-71
2022/09/20 03:22:35;;;;;;;;;4.00;4.00;;;;;;;;4898736;28;45604;-71
2022/09/20 03:25:15;;;;;;;;;5.00;3.33;;;;;;;;4900395;28;45440;-71
2022/09/20 03:27:54;;;;;;;;;4.00;3.00;;;;;;;;4899625;28;46232;-72
2022/09/20 03:30:29;;;;;;;;;2.67;2.67;;;;;;;;4900017;28;45314;-71
2022/09/20 03:33:09;;;;;;;;;3.00;3.00;;;;;;;;4900314;29;45386;-71
2022/09/20 03:35:37;;;;;;;;;7.00;4.00;;;;;;;;4903144;29;45444;-71
2022/09/20 03:38:09;;;;;;;;;8.00;4.00;;;;;;;;4901900;29;47414;-71
2022/09/20 03:40:40;;;;;;;;;2.00;2.00;;;;;;;;4903292;29;45439;-71
2022/09/20 03:43:28;;;;;;;;;6.33;2.00;;;;;;;;4901500;29;45302;-71
2022/09/20 03:46:06;;;;;;;;;11.67;9.00;;;;;;;;4844597;29;45464;-71
2022/09/20 03:48:51;;;;;;;;;4.33;3.00;;;;;;;;4844298;29;46596;-71
2022/09/20 03:51:23;;;;;;;;;3.00;3.00;;;;;;;;4844268;29;45372;-71
2022/09/20 03:54:01;;;;;;;;;4.00;3.00;;;;;;;;4844658;29;45328;-71
2022/09/20 03:56:26;;;;;;;;;11.00;7.00;;;;;;;;4858862;29;45585;-71
2022/09/20 03:58:57;;;;;;;;;6.00;4.00;;;;;;;;4862859;29;45801;-71
2022/09/20 04:01:28;;;;;;;;;3.00;3.00;;;;;;;;4863006;29;45375;-71
2022/09/20 04:04:02;;;;;;;;;6.00;4.00;;;;;;;;4862898;29;45474;-71
2022/09/20 04:06:30;;;;;;;;;5.67;5.67;;;;;;;;4863195;29;45392;-71
2022/09/20 04:09:14;;;;;;;;;5.00;3.00;;;;;;;;4862656;29;45694;-71
2022/09/20 04:11:49;;;;;;;;;6.00;5.00;;;;;;;;4861068;29;45343;-71
2022/09/20 04:14:24;;;;;;;;;2.00;2.00;;;;;;;;4863098;29;45348;-71
2022/09/20 04:17:08;;;;;;;;;5.00;3.00;;;;;;;;4862724;29;45789;-71
2022/09/20 04:19:45;;;;;;;;;4.00;4.00;;;;;;;;4862839;29;46562;-71
2022/09/20 04:22:10;;;;;;;;;3.00;3.00;;;;;;;;4869789;29;45491;-71
2022/09/20 04:24:51;;;;;;;;;5.33;4.00;;;;;;;;4902436;29;45374;-71
2022/09/20 04:27:20;;;;;;;;;7.00;7.00;;;;;;;;4901500;29;45397;-70
2022/09/20 04:30:04;;;;;;;;;5.33;5.00;;;;;;;;4902152;29;45470;-71
2022/09/20 04:32:41;;;;;;;;;4.00;4.00;;;;;;;;4901927;28;45485;-71
2022/09/20 04:38:13;;;;;;;;;3.00;3.00;;;;;;;;4902255;29;45444;-70
2022/09/20 04:40:58;;;;;;;;;19.67;15.00;;;;;;;;4885163;29;47532;-71
2022/09/20 04:43:23;;;;;;;;;6.00;5.00;;;;;;;;4900895;29;45411;-70
2022/09/20 04:45:51;;;;;;;;;7.67;7.33;;;;;;;;4901861;29;45444;-71
2022/09/20 04:48:39;;;;;;;;;6.67;5.33;;;;;;;;4901958;29;45351;-70
2022/09/20 04:51:10;;;;;;;;;5.33;5.00;;;;;;;;4900973;29;46285;-70
2022/09/20 04:53:35;;;;;;;;;5.33;5.33;;;;;;;;4901849;29;45333;-71
2022/09/20 04:56:09;;;;;;;;;8.33;5.67;;;;;;;;4901996;29;45321;-72
2022/09/20 04:58:37;;;;;;;;;7.00;5.00;;;;;;;;4901616;29;45476;-71
2022/09/20 05:01:18;;;;;;;;;5.67;4.00;;;;;;;;4899867;29;46601;-71
2022/09/20 05:03:59;;;;;;;;;5.00;5.00;;;;;;;;4901349;29;45399;-71
2022/09/20 05:06:43;;;;;;;;;5.33;5.00;;;;;;;;4901946;28;45417;-72
2022/09/20 05:09:31;;;;;;;;;4.33;3.00;;;;;;;;4902044;28;45541;-71
2022/09/20 05:11:56;;;;;;;;;4.33;3.00;;;;;;;;4900877;29;45902;-71
2022/09/20 05:14:24;;;;;;;;;3.33;3.33;;;;;;;;4901815;29;45527;-71
2022/09/20 05:17:01;;;;;;;;;7.33;6.00;;;;;;;;4900551;29;45842;-71
2022/09/20 05:19:29;;;;;;;;;5.67;4.00;;;;;;;;4901813;29;45379;-71
2022/09/20 05:22:05;;;;;;;;;6.67;5.00;;;;;;;;4900887;28;46207;-70
2022/09/20 05:24:45;;;;;;;;;13.00;11.00;;;;;;;;4901275;29;45297;-69
2022/09/20 05:27:29;;;;;;;;;11.67;10.00;;;;;;;;4901256;28;45638;-70
2022/09/20 05:30:11;;;;;;;;;7.33;6.67;;;;;;;;4901993;28;45520;-70
2022/09/20 05:32:51;;;;;;;;;7.00;4.00;;;;;;;;4900147;29;45543;-69
2022/09/20 05:35:16;;;;;;;;;9.67;8.67;;;;;;;;4901272;28;45342;-70
2022/09/20 05:37:51;;;;;;;;;6.00;5.33;;;;;;;;4901177;29;45345;-69
2022/09/20 05:40:20;;;;;;;;;7.67;7.00;;;;;;;;4901396;29;45385;-69
2022/09/20 05:42:52;;;;;;;;;7.67;6.00;;;;;;;;4900976;29;46282;-69
2022/09/20 05:45:30;;;;;;;;;6.33;5.67;;;;;;;;4901183;28;45443;-69
2022/09/20 05:47:58;;;;;;;;;7.00;7.00;;;;;;;;4899549;29;45413;-69
2022/09/20 05:50:41;;;;;;;;;6.33;5.00;;;;;;;;4901395;29;45297;-70
2022/09/20 05:53:06;;;;;;;;;9.00;7.00;;;;;;;;4900845;29;46634;-70
2022/09/20 05:55:55;;;;;;;;;9.33;8.33;;;;;;;;4900783;29;45424;-71
2022/09/20 05:58:38;;;;;;;;;11.33;9.00;;;;;;;;4849515;29;45522;-70
2022/09/20 06:01:24;;;;;;;;;10.00;9.00;;;;;;;;4861182;29;45439;-70
2022/09/20 06:03:54;;;;;;;;;9.33;5.33;;;;;;;;4860197;29;45791;-70
2022/09/20 06:06:49;;;;;;;;;8.00;8.00;;;;;;;;4859811;29;45459;-71
2022/09/20 06:09:17;;;;;;;;;7.67;6.33;;;;;;;;4804448;29;45663;-71
2022/09/20 06:12:01;;;;;;;;;15.67;11.00;;;;;;;;4805782;29;45422;-71
2022/09/20 06:14:38;;;;;;;;;7.33;7.33;;;;;;;;4802128;29;46511;-69
2022/09/20 06:17:04;;;;;;;;;21.33;19.33;;;;;;;;4804399;29;45349;-69
2022/09/20 06:19:34;;;;;;;;;11.33;7.33;;;;;;;;4805592;29;45537;-69
2022/09/20 06:22:03;;;;;;;;;18.00;13.00;;;;;;;;4805399;29;45336;-69
2022/09/20 06:24:32;;;;;;;;;11.00;7.33;;;;;;;;4805492;29;46741;-71
2022/09/20 06:27:01;;;;;;;;;15.00;11.67;;;;;;;;4805334;29;45452;-71
2022/09/20 06:29:32;;;;;;;;;10.00;8.33;;;;;;;;4805573;29;45463;-72
2022/09/20 06:31:58;;;;;;;;;14.33;9.67;;;;;;;;4805740;29;45441;-71
2022/09/20 06:34:23;;;;;;;;;15.00;13.00;;;;;;;;4798940;29;45482;-71
2022/09/20 06:42:43;;;;;;;;;10.67;10.67;;;;;;;;4842583;29;45300;-71
2022/09/20 06:45:08;;;;;;;;;11.33;11.33;;;;;;;;4853275;29;47161;-72
2022/09/20 06:47:34;;;;;;;;;13.00;12.67;;;;;;;;4881552;29;45318;-71
2022/09/20 06:49:59;;;;;;;;;12.00;10.67;;;;;;;;4881734;29;45228;-71
2022/09/20 06:52:24;;;;;;;;;7.33;7.33;;;;;;;;4881852;29;45159;-71
2022/09/20 06:54:52;;;;;;;;;8.67;6.67;;;;;;;;4881529;29;45283;-71
2022/09/20 06:57:21;;;;;;;;;9.00;9.00;;;;;;;;4881475;29;45380;-72
2022/09/20 06:59:47;;;;;;;;;12.00;10.67;;;;;;;;4881693;29;45486;-71
2022/09/20 07:02:12;;;;;;;;;12.00;8.00;;;;;;;;4881820;29;45292;-71
2022/09/20 07:04:37;;;;;;;;;14.00;11.33;;;;;;;;4881245;29;46574;-72
2022/09/20 07:07:04;;;;;;;;;13.67;11.00;;;;;;;;4881453;29;45215;-72
2022/09/20 07:09:30;;;;;;;;;9.33;9.00;;;;;;;;4884518;29;45302;-72
2022/09/20 07:11:57;;;;;;;;;14.00;14.00;;;;;;;;4884944;29;45294;-72
2022/09/20 07:14:23;;;;;;;;;6.33;6.33;;;;;;;;4884583;29;47289;-72
2022/09/20 07:16:49;;;;;;;;;5.33;5.33;;;;;;;;4884622;29;45421;-72
2022/09/20 07:19:15;;;;;;;;;11.00;11.00;;;;;;;;4884593;29;45457;-72
2022/09/20 07:21:40;;;;;;;;;12.67;10.00;;;;;;;;4885124;29;45326;-71
2022/09/20 07:24:05;;;;;;;;;12.00;11.00;;;;;;;;4903372;29;46480;-71
2022/09/20 07:26:31;;;;;;;;;11.00;8.00;;;;;;;;4903592;29;45362;-71
2022/09/20 07:28:58;;;;;;;;;9.33;8.67;;;;;;;;4903545;29;45290;-72
2022/09/20 07:31:24;;;;;;;;;14.67;14.67;;;;;;;;4903516;29;45317;-72
2022/09/20 07:33:50;;;;;;;;;11.33;9.67;;;;;;;;4903144;28;45476;-72
2022/09/20 07:36:16;;;;;;;;;11.67;7.00;;;;;;;;4903075;29;45523;-72
2022/09/20 07:38:42;;;;;;;;;11.33;8.67;;;;;;;;4903461;29;45425;-71
2022/09/20 07:41:08;;;;;;;;;8.67;7.33;;;;;;;;4903507;29;45718;-72
2022/09/20 07:43:33;;;;;;;;;6.33;6.33;;;;;;;;4902902;29;46343;-71
2022/09/20 07:45:59;;;;;;;;;6.00;4.67;;;;;;;;4903165;29;45347;-70
2022/09/20 07:48:31;;;;;;;;;5.00;4.00;;;;;;;;4903064;29;45441;-70
2022/09/20 07:50:58;;;;;;;;;14.33;13.33;;;;;;;;4903394;28;45408;-72
2022/09/20 07:53:23;;;;;;;;;5.67;4.67;;;;;;;;4902976;29;46494;-71
2022/09/20 07:56:16;;;;;;;;;6.67;5.00;;;;;;;;4902666;29;45360;-71
2022/09/20 07:58:43;;;;;;;;;4.67;3.33;;;;;;;;4900081;29;45546;-70
2022/09/20 08:01:10;;;;;;;;;6.00;6.00;;;;;;;;4903235;28;45325;-71
2022/09/20 08:03:36;;;;;;;;;9.67;7.33;;;;;;;;4901881;29;46575;-72
2022/09/20 08:06:03;;;;;;;;;8.00;6.00;;;;;;;;4902822;29;45247;-72
2022/09/20 08:08:31;;;;;;;;;5.33;5.33;;;;;;;;4903030;29;45442;-72
2022/09/20 08:11:08;;;;;;;;;5.33;4.00;;;;;;;;4902913;29;45861;-69
2022/09/20 08:13:40;;;;;;;;;2.00;2.00;;;;;;;;4902391;29;46173;-68
2022/09/20 08:16:07;;;;;;;;;5.00;1.67;;;;;;;;4902703;29;45243;-70
2022/09/20 08:18:33;;;;;;;;;4.33;3.67;;;;;;;;4902347;29;45315;-69
2022/09/20 08:21:05;;;;;;;;;2.33;2.33;;;;;;;;4901960;29;45369;-71
2022/09/20 08:23:41;;;;;;;;;1.67;1.67;;;;;;;;4902291;29;47139;-71
2022/09/20 08:26:07;;;;;;;;;6.00;4.33;;;;;;;;4902489;29;45465;-71
2022/09/20 08:28:33;;;;;;;;;3.00;3.00;;;;;;;;4902524;28;45390;-71
2022/09/20 08:31:05;;;;;;;;;2.33;2.00;;;;;;;;4902784;29;45413;-71
2022/09/20 08:33:31;;;;;;;;;1.75;1.75;;;;;;;;4902376;29;46355;-72
2022/09/20 08:35:56;;;;;;;;;4.00;3.00;;;;;;;;4901961;29;45429;-71
2022/09/20 08:38:25;;;;;;;;;2.33;2.33;;;;;;;;4902528;29;45447;-71
2022/09/20 08:40:52;;;;;;;;;3.67;3.67;;;;;;;;4902539;29;45246;-71
2022/09/20 08:43:17;;;;;;;;;1.33;1.00;;;;;;;;4902196;29;46130;-71
2022/09/20 08:45:42;;;;;;;;;1.50;0.00;;;;;;;;4902161;29;45335;-71
2022/09/20 08:48:11;;;;;;;;;2.25;1.00;;;;;;;;4914264;28;45856;-71
2022/09/20 08:50:37;;;;;;;;;1.00;1.00;;;;;;;;4919744;28;45561;-69
2022/09/20 08:53:05;;;;;;;;;2.00;0.00;;;;;;;;4919403;28;45781;-71
2022/09/20 08:55:32;;;;;;;;;0.50;0.00;;;;;;;;4918829;28;45449;-69
2022/09/20 08:57:58;;;;;;;;;0.00;0.00;;;;;;;;4919443;28;45889;-71
2022/09/20 09:00:31;;;;;;;;;0.00;0.00;;;;;;;;4919785;28;45385;-69
2022/09/20 09:02:59;;;;;;;;;0.00;0.00;;;;;;;;4919298;28;45305;-70
2022/09/20 09:05:27;;;;;;;;;0.00;0.00;;;;;;;;4919331;28;45421;-69
2022/09/20 09:07:52;;;;;;;;;0.25;0.25;;;;;;;;4919016;28;45509;-69
2022/09/20 09:10:17;;;;;;;;;1.00;1.00;;;;;;;;4919771;28;45479;-71
2022/09/20 09:12:45;;;;;;;;;1.50;0.00;;;;;;;;4919279;28;46399;-70
2022/09/20 09:15:29;;;;;;;;;2.00;2.00;;;;;;;;4919015;28;45632;-70
2022/09/20 09:17:54;;;;;;;;;2.00;0.00;;;;;;;;4919190;28;45440;-70
2022/09/20 09:20:21;;;;;;;;;1.50;0.75;;;;;;;;4919340;28;45377;-72
2022/09/20 09:22:47;;;;;;;;;1.00;1.00;;;;;;;;4918424;28;46489;-71
2022/09/20 09:25:13;;;;;;;;;2.00;0.25;;;;;;;;4919296;28;45500;-70
2022/09/20 09:27:50;;;;;;;;;1.75;1.75;;;;;;;;4919409;28;45761;-71
2022/09/20 09:30:27;;;;;;;;;0.00;0.00;;;;;;;;4918878;28;45406;-69
2022/09/20 09:33:12;;;;;;;;;1.00;0.00;;;;;;;;4918838;28;46296;-70
2022/09/20 09:35:37;;;;;;;;;0.25;0.25;;;;;;;;4918497;28;45450;-70
2022/09/20 09:38:02;;;;;;;;;0.00;0.00;;;;;;;;4919218;28;45778;-71
2022/09/20 09:40:30;;;;;;;;;0.00;0.00;;;;;;;;4918656;28;45448;-69
2022/09/20 09:42:57;;;;;;;;;2.00;1.00;;;;;;;;4918780;28;45436;-69
2022/09/20 09:45:27;;;;;;;;;0.00;0.00;;;;;;;;4918487;28;45456;-71
2022/09/20 09:47:53;;;;;;;;;0.00;0.00;;;;;;;;4913766;28;45488;-70
2022/09/20 09:50:27;;;;;;;;;0.75;0.50;;;;;;;;4914200;28;46205;-71
2022/09/20 09:53:12;;;;;;;;;2.50;0.00;;;;;;;;4914533;28;45925;-71
2022/09/20 09:55:57;;;;;;;;;0.00;0.00;;;;;;;;4914927;28;45472;-71
2022/09/20 09:58:23;;;;;;;;;0.00;0.00;;;;;;;;4859450;29;45588;-69
2022/09/20 10:00:48;;;;;;;;;2.00;1.00;;;;;;;;4859256;29;45411;-70
2022/09/20 10:03:32;;;;;;;;;2.00;2.00;;;;;;;;4859432;29;47538;-71
2022/09/20 10:06:02;;;;;;;;;0.50;0.00;;;;;;;;4860680;29;45526;-69
2022/09/20 10:08:34;;;;;;;;;0.33;0.00;;;;;;;;4861386;29;45347;-70
2022/09/20 10:11:11;;;;;;;;;0.00;0.00;;;;;;;;4861611;29;45372;-71
2022/09/20 10:13:37;;;;;;;;;0.00;0.00;;;;;;;;4860863;29;46407;-71
2022/09/20 10:16:24;;;;;;;;;0.00;0.00;;;;;;;;4861060;29;45777;-71
2022/09/20 10:18:52;;;;;;;;;0.00;0.00;;;;;;;;4861201;29;45505;-70
2022/09/20 10:21:27;;;;;;;;;1.00;1.00;;;;;;;;4861324;29;45605;-71
2022/09/20 10:24:08;;;;;;;;;0.67;0.00;;;;;;;;4860985;29;45422;-70
2022/09/20 10:26:36;;;;;;;;;0.00;0.00;;;;;;;;4861003;29;45350;-71
2022/09/20 10:29:10;;;;;;;;;1.00;0.00;;;;;;;;4860981;29;45326;-71
2022/09/20 10:31:44;;;;;;;;;0.00;0.00;;;;;;;;4861527;29;45247;-71
2022/09/20 10:34:13;;;;;;;;;2.00;0.00;;;;;;;;4861066;29;46453;-72
2022/09/20 10:36:50;;;;;;;;;0.00;0.00;;;;;;;;4918211;28;45285;-72
2022/09/20 10:39:20;;;;;;;;;0.00;0.00;;;;;;;;4919807;28;45297;-72
2022/09/20 10:45:00;;;;;;;;;0.67;0.67;;;;;;;;4922575;28;45436;-72
2022/09/20 10:47:31;;;;;;;;;0.00;0.00;;;;;;;;4923100;28;45411;-72
2022/09/20 10:50:13;;;;;;;;;0.00;0.00;;;;;;;;4923160;28;45813;-72
2022/09/20 10:53:00;;;;;;;;;1.67;0.00;;;;;;;;4923131;28;45417;-72
2022/09/20 10:55:44;;;;;;;;;0.33;0.00;;;;;;;;4922768;28;47126;-72
2022/09/20 10:58:21;;;;;;;;;0.00;0.00;;;;;;;;4922239;28;45350;-71
2022/09/20 11:00:49;;;;;;;;;0.67;0.00;;;;;;;;4922339;28;45217;-72
2022/09/20 11:03:38;;;;;;;;;0.33;0.00;;;;;;;;4923163;28;45399;-70
2022/09/20 11:06:09;;;;;;;;;1.00;1.00;;;;;;;;4922604;28;46424;-72
2022/09/20 11:08:36;;;;;;;;;0.00;0.00;;;;;;;;4922822;28;45414;-70
2022/09/20 11:11:19;;;;;;;;;0.00;0.00;;;;;;;;4922765;28;45642;-72
2022/09/20 11:14:05;;;;;;;;;0.00;0.00;;;;;;;;4922967;28;45377;-72
2022/09/20 11:16:38;;;;;;;;;0.00;0.00;;;;;;;;4922088;28;45747;-71
2022/09/20 11:19:12;;;;;;;;;0.00;0.00;;;;;;;;4922731;28;45269;-72
2022/09/20 11:21:43;;;;;;;;;2.67;0.00;;;;;;;;4922540;28;45365;-72
2022/09/20 11:24:25;;;;;;;;;0.00;0.00;;;;;;;;4922609;28;45258;-71
2022/09/20 11:26:53;;;;;;;;;0.67;0.67;;;;;;;;4922284;28;46512;-72
2022/09/20 11:29:31;;;;;;;;;1.00;1.00;;;;;;;;4921787;28;45352;-71
2022/09/20 11:32:02;;;;;;;;;2.00;1.00;;;;;;;;4922616;28;45250;-72
2022/09/20 11:34:27;;;;;;;;;0.00;0.00;;;;;;;;4922539;28;45547;-72
2022/09/20 11:37:01;;;;;;;;;0.00;0.00;;;;;;;;4922164;28;46378;-72
2022/09/20 11:39:27;;;;;;;;;0.00;0.00;;;;;;;;4922254;28;45529;-72
2022/09/20 11:41:54;;;;;;;;;0.67;0.00;;;;;;;;4922434;28;45329;-72
2022/09/20 11:44:20;;;;;;;;;0.00;0.00;;;;;;;;4922521;28;45520;-71
2022/09/20 11:46:51;;;;;;;;;0.00;0.00;;;;;;;;4922114;28;45322;-72
2022/09/20 11:49:22;;;;;;;;;0.00;0.00;;;;;;;;4922177;28;45353;-72
2022/09/20 11:52:06;;;;;;;;;0.00;0.00;;;;;;;;4922089;28;45230;-72
2022/09/20 11:54:31;;;;;;;;;4.00;4.00;;;;;;;;4921278;28;45648;-72
2022/09/20 11:56:57;;;;;;;;;0.00;0.00;;;;;;;;4921266;28;45356;-71
2022/09/20 11:59:25;;;;;;;;;0.00;0.00;;;;;;;;4922204;28;45576;-72
2022/09/20 12:01:53;;;;;;;;;0.00;0.00;;;;;;;;4922049;28;45377;-70
2022/09/20 12:04:28;;;;;;;;;1.00;1.00;;;;;;;;4922162;28;45284;-72
2022/09/20 12:07:12;;;;;;;;;5.00;3.00;;;;;;;;4917477;28;47104;-72
2022/09/20 12:09:39;;;;;;;;;1.00;1.00;;;;;;;;4920151;28;45455;-72
2022/09/20 12:12:23;;;;;;;;;1.33;0.00;;;;;;;;4921944;28;45294;-71
2022/09/20 12:14:55;;;;;;;;;1.33;1.00;;;;;;;;4922071;28;45536;-71
2022/09/20 12:17:38;;;;;;;;;4.33;4.33;;;;;;;;4921585;28;45476;-72
2022/09/20 12:20:23;;;;;;;;;0.00;0.00;;;;;;;;4921636;28;45287;-72
2022/09/20 12:22:49;;;;;;;;;2.00;0.00;;;;;;;;4921311;28;45271;-71
2022/09/20 12:25:33;;;;;;;;;0.00;0.00;;;;;;;;4922241;28;45216;-71
2022/09/20 12:27:58;;;;;;;;;0.00;0.00;;;;;;;;4921713;28;46637;-72
2022/09/20 12:30:23;;;;;;;;;2.00;0.00;;;;;;;;4921570;28;45274;-72
2022/09/20 12:32:56;;;;;;;;;2.00;0.00;;;;;;;;4921919;28;45460;-72
2022/09/20 12:35:43;;;;;;;;;0.33;0.33;;;;;;;;4921741;28;45899;-71
2022/09/20 12:38:20;;;;;;;;;2.00;0.00;;;;;;;;4921302;28;45319;-72
2022/09/20 12:41:04;;;;;;;;;2.33;1.00;;;;;;;;4921399;28;45453;-70
2022/09/20 12:43:30;;;;;;;;;2.00;0.33;;;;;;;;4921423;28;45273;-70
2022/09/20 12:45:56;;;;;;;;;1.00;0.33;;;;;;;;4921679;28;45588;-71
2022/09/20 12:48:21;;;;;;;;;0.00;0.00;;;;;;;;4921242;28;46350;-70
2022/09/20 12:53:57;;;;;;;;;1.00;1.00;;;;;;;;4921264;28;45349;-70
2022/09/20 12:56:26;;;;;;;;;2.33;2.33;;;;;;;;4921283;28;45516;-71
2022/09/20 12:58:53;;;;;;;;;0.67;0.67;;;;;;;;4920913;28;46489;-70
2022/09/20 13:01:21;;;;;;;;;2.00;1.00;;;;;;;;4921068;28;45360;-70
2022/09/20 13:03:48;;;;;;;;;0.00;0.00;;;;;;;;4921121;28;45388;-70
2022/09/20 13:06:14;;;;;;;;;0.00;0.00;;;;;;;;4920917;28;45555;-70
2022/09/20 13:08:42;;;;;;;;;1.00;1.00;;;;;;;;4920900;28;45909;-71
2022/09/20 13:11:18;;;;;;;;;0.00;0.00;;;;;;;;4921027;28;45321;-71
2022/09/20 13:13:51;;;;;;;;;2.00;0.00;;;;;;;;4921169;28;45441;-72
2022/09/20 13:16:21;;;;;;;;;0.00;0.00;;;;;;;;4921255;28;45408;-72
2022/09/20 13:18:50;;;;;;;;;0.00;0.00;;;;;;;;4920869;28;46091;-71
2022/09/20 13:21:15;;;;;;;;;1.67;0.00;;;;;;;;4920964;28;45247;-72
2022/09/20 13:23:45;;;;;;;;;0.00;0.00;;;;;;;;4920582;28;45276;-71
2022/09/20 13:26:12;;;;;;;;;0.33;0.33;;;;;;;;4921015;28;45436;-72
2022/09/20 13:28:57;;;;;;;;;3.00;1.00;;;;;;;;4920490;28;46081;-72
2022/09/20 13:31:24;;;;;;;;;0.67;0.67;;;;;;;;4920581;28;45171;-72
2022/09/20 13:33:49;;;;;;;;;0.00;0.00;;;;;;;;4920754;28;45468;-72
2022/09/20 13:36:21;;;;;;;;;0.00;0.00;;;;;;;;4920784;28;45597;-72
2022/09/20 13:38:48;;;;;;;;;0.00;0.00;;;;;;;;4920472;28;47236;-72
2022/09/20 13:41:15;;;;;;;;;0.00;0.00;;;;;;;;4920321;28;45519;-72
2022/09/20 13:43:45;;;;;;;;;0.00;0.00;;;;;;;;4920513;28;45321;-69
2022/09/20 13:46:37;;;;;;;;;3.33;3.33;;;;;;;;4920602;28;45370;-72
2022/09/20 13:49:23;;;;;;;;;3.00;1.00;;;;;;;;4917425;28;47034;-72
2022/09/20 13:51:49;;;;;;;;;0.67;0.00;;;;;;;;4920215;28;45477;-72
2022/09/20 13:54:26;;;;;;;;;0.67;0.00;;;;;;;;4920559;28;45386;-72
2022/09/20 13:56:52;;;;;;;;;3.00;0.00;;;;;;;;4920611;28;45388;-72
2022/09/20 13:59:18;;;;;;;;;1.00;1.00;;;;;;;;4920128;28;45387;-72
2022/09/20 14:01:50;;;;;;;;;0.00;0.00;;;;;;;;4920511;28;45470;-72
2022/09/20 14:04:23;;;;;;;;;0.33;0.33;;;;;;;;4920426;28;45562;-72
2022/09/20 14:06:50;;;;;;;;;5.33;4.67;;;;;;;;4920100;28;45484;-72
2022/09/20 14:09:22;;;;;;;;;0.00;0.00;;;;;;;;4920020;28;47041;-72
2022/09/20 14:11:47;;;;;;;;;4.00;1.67;;;;;;;;4920311;28;45441;-72
2022/09/20 14:14:13;;;;;;;;;0.00;0.00;;;;;;;;4920246;28;45313;-72
2022/09/20 14:16:40;;;;;;;;;1.00;1.00;;;;;;;;4920537;28;45326;-72
2022/09/20 14:19:09;;;;;;;;;0.00;0.00;;;;;;;;4919072;28;46389;-72
2022/09/20 14:21:35;;;;;;;;;1.67;1.00;;;;;;;;4919785;28;45182;-72
2022/09/20 14:24:23;;;;;;;;;1.00;1.00;;;;;;;;4919835;28;45258;-72
2022/09/20 14:27:02;;;;;;;;;1.33;1.00;;;;;;;;4920209;28;45407;-72
2022/09/20 14:29:33;;;;;;;;;1.00;1.00;;;;;;;;4919761;28;45491;-71
2022/09/20 14:32:00;;;;;;;;;2.00;1.00;;;;;;;;4919762;28;45388;-72
2022/09/20 14:34:26;;;;;;;;;0.00;0.00;;;;;;;;4919833;28;45371;-71
2022/09/20 14:37:01;;;;;;;;;3.00;3.00;;;;;;;;4920068;28;45426;-72
2022/09/20 14:39:26;;;;;;;;;0.67;0.67;;;;;;;;4919778;28;46448;-71
2022/09/20 14:41:51;;;;;;;;;3.00;1.00;;;;;;;;4919831;28;45264;-70
2022/09/20 14:44:33;;;;;;;;;2.00;0.33;;;;;;;;4919645;28;45362;-71
2022/09/20 14:46:58;;;;;;;;;1.33;1.00;;;;;;;;4919857;28;45519;-72
2022/09/20 14:49:24;;;;;;;;;0.25;0.25;;;;;;;;4919503;28;45734;-72
2022/09/20 14:51:49;;;;;;;;;0.00;0.00;;;;;;;;4919589;28;45423;-72
2022/09/20 14:54:29;;;;;;;;;0.67;0.67;;;;;;;;4919700;28;45250;-70
2022/09/20 14:56:56;;;;;;;;;0.00;0.00;;;;;;;;4919792;28;45461;-71
2022/09/20 14:59:34;;;;;;;;;2.67;1.00;;;;;;;;4919538;28;46023;-71
2022/09/20 15:02:11;;;;;;;;;0.00;0.00;;;;;;;;4919449;28;45330;-71
2022/09/20 15:04:38;;;;;;;;;0.00;0.00;;;;;;;;4919413;28;45353;-71
2022/09/20 15:07:05;;;;;;;;;0.00;0.00;;;;;;;;4919607;28;45233;-72
2022/09/20 15:09:31;;;;;;;;;0.67;0.67;;;;;;;;4919373;28;46434;-73
2022/09/20 15:11:59;;;;;;;;;2.00;0.75;;;;;;;;4919408;28;45306;-71
2022/09/20 15:14:24;;;;;;;;;1.00;0.00;;;;;;;;4919698;28;45351;-72
2022/09/20 15:16:49;;;;;;;;;0.00;0.00;;;;;;;;4919587;28;45439;-72
2022/09/20 15:19:15;;;;;;;;;0.00;0.00;;;;;;;;4919335;28;45633;-71
2022/09/20 15:21:40;;;;;;;;;1.00;1.00;;;;;;;;4919038;28;45333;-71
2022/09/20 15:24:06;;;;;;;;;0.50;0.00;;;;;;;;4919204;28;45434;-72
2022/09/20 15:26:33;;;;;;;;;1.00;1.00;;;;;;;;4919671;28;45482;-72